sensor_id;sensor_type;location;lat;lon;timestamp;P1;durP1;ratioP1;P2;durP2;ratioP2
61709;SDS011;47633;51.494;5.386;2023-03-16T00:01:39;3.60;;;2.28;;
61709;SDS011;47633;51.494;5.386;2023-03-16T00:04:04;5.78;;;2.50;;
61709;SDS011;47633;51.494;5.386;2023-03-16T00:06:29;5.72;;;2.50;;
61709;SDS011;47633;51.494;5.386;2023-03-16T00:08:55;3.80;;;2.10;;
61709;SDS011;47633;51.494;5.386;2023-03-16T00:11:23;4.65;;;2.88;;
61709;SDS011;47633;51.494;5.386;2023-03-16T00:13:50;6.70;;;2.40;;
61709;SDS011;47633;51.494;5.386;2023-03-16T00:16:15;4.97;;;2.50;;
61709;SDS011;47633;51.494;5.386;2023-03-16T00:18:41;6.25;;;2.67;;
61709;SDS011;47633;51.494;5.386;2023-03-16T00:21:06;3.63;;;2.20;;
61709;SDS011;47633;51.494;5.386;2023-03-16T00:23:32;4.90;;;2.28;;
61709;SDS011;47633;51.494;5.386;2023-03-16T00:26:00;4.07;;;2.30;;
61709;SDS011;47633;51.494;5.386;2023-03-16T00:28:33;4.40;;;2.65;;
61709;SDS011;47633;51.494;5.386;2023-03-16T00:31:00;4.68;;;2.40;;
61709;SDS011;47633;51.494;5.386;2023-03-16T00:33:26;4.68;;;2.50;;
61709;SDS011;47633;51.494;5.386;2023-03-16T00:35:52;4.03;;;2.45;;
61709;SDS011;47633;51.494;5.386;2023-03-16T00:38:26;4.32;;;2.53;;
61709;SDS011;47633;51.494;5.386;2023-03-16T00:40:52;4.97;;;2.45;;
61709;SDS011;47633;51.494;5.386;2023-03-16T00:43:17;4.90;;;2.72;;
61709;SDS011;47633;51.494;5.386;2023-03-16T00:45:43;4.82;;;2.28;;
61709;SDS011;47633;51.494;5.386;2023-03-16T00:48:09;4.78;;;2.40;;
61709;SDS011;47633;51.494;5.386;2023-03-16T00:50:35;4.70;;;2.53;;
61709;SDS011;47633;51.494;5.386;2023-03-16T00:53:00;4.75;;;2.35;;
61709;SDS011;47633;51.494;5.386;2023-03-16T00:55:26;3.80;;;2.25;;
61709;SDS011;47633;51.494;5.386;2023-03-16T00:57:52;7.22;;;2.75;;
61709;SDS011;47633;51.494;5.386;2023-03-16T01:00:18;4.63;;;2.17;;
61709;SDS011;47633;51.494;5.386;2023-03-16T01:02:45;4.35;;;2.45;;
61709;SDS011;47633;51.494;5.386;2023-03-16T01:05:11;3.92;;;2.40;;
61709;SDS011;47633;51.494;5.386;2023-03-16T01:07:38;4.43;;;2.63;;
61709;SDS011;47633;51.494;5.386;2023-03-16T01:10:04;4.45;;;2.50;;
61709;SDS011;47633;51.494;5.386;2023-03-16T01:12:30;5.15;;;2.40;;
61709;SDS011;47633;51.494;5.386;2023-03-16T01:14:56;4.47;;;2.38;;
61709;SDS011;47633;51.494;5.386;2023-03-16T01:17:21;5.45;;;2.15;;
61709;SDS011;47633;51.494;5.386;2023-03-16T01:19:47;3.92;;;2.10;;
61709;SDS011;47633;51.494;5.386;2023-03-16T01:22:13;5.55;;;2.42;;
61709;SDS011;47633;51.494;5.386;2023-03-16T01:24:40;5.13;;;2.38;;
61709;SDS011;47633;51.494;5.386;2023-03-16T01:27:06;5.65;;;2.60;;
61709;SDS011;47633;51.494;5.386;2023-03-16T01:29:32;4.38;;;2.08;;
61709;SDS011;47633;51.494;5.386;2023-03-16T01:31:58;4.15;;;2.28;;
61709;SDS011;47633;51.494;5.386;2023-03-16T01:34:24;6.10;;;2.40;;
61709;SDS011;47633;51.494;5.386;2023-03-16T01:36:49;4.55;;;2.40;;
61709;SDS011;47633;51.494;5.386;2023-03-16T01:39:15;3.67;;;1.92;;
61709;SDS011;47633;51.494;5.386;2023-03-16T01:41:42;4.68;;;2.17;;
61709;SDS011;47633;51.494;5.386;2023-03-16T01:44:15;4.40;;;2.38;;
61709;SDS011;47633;51.494;5.386;2023-03-16T01:46:43;4.25;;;2.10;;
61709;SDS011;47633;51.494;5.386;2023-03-16T01:54:13;3.75;;;1.98;;
61709;SDS011;47633;51.494;5.386;2023-03-16T01:57:19;4.95;;;2.20;;
61709;SDS011;47633;51.494;5.386;2023-03-16T02:02:32;4.65;;;2.25;;
61709;SDS011;47633;51.494;5.386;2023-03-16T02:05:00;3.38;;;1.95;;
61709;SDS011;47633;51.494;5.386;2023-03-16T02:07:31;4.40;;;2.40;;
61709;SDS011;47633;51.494;5.386;2023-03-16T02:09:59;4.40;;;2.20;;
61709;SDS011;47633;51.494;5.386;2023-03-16T02:12:27;4.78;;;2.50;;
61709;SDS011;47633;51.494;5.386;2023-03-16T02:14:53;6.75;;;2.45;;
61709;SDS011;47633;51.494;5.386;2023-03-16T02:17:20;4.45;;;2.10;;
61709;SDS011;47633;51.494;5.386;2023-03-16T02:22:32;3.92;;;2.20;;
61709;SDS011;47633;51.494;5.386;2023-03-16T02:25:00;4.63;;;2.08;;
61709;SDS011;47633;51.494;5.386;2023-03-16T02:32:22;4.38;;;2.40;;
61709;SDS011;47633;51.494;5.386;2023-03-16T02:34:50;3.80;;;2.00;;
61709;SDS011;47633;51.494;5.386;2023-03-16T02:37:16;4.13;;;2.22;;
61709;SDS011;47633;51.494;5.386;2023-03-16T02:39:41;4.68;;;2.15;;
61709;SDS011;47633;51.494;5.386;2023-03-16T02:42:09;4.90;;;2.20;;
61709;SDS011;47633;51.494;5.386;2023-03-16T02:44:37;4.43;;;2.30;;
61709;SDS011;47633;51.494;5.386;2023-03-16T02:47:06;4.25;;;2.05;;
61709;SDS011;47633;51.494;5.386;2023-03-16T02:49:39;4.30;;;2.20;;
61709;SDS011;47633;51.494;5.386;2023-03-16T02:52:08;3.83;;;2.05;;
61709;SDS011;47633;51.494;5.386;2023-03-16T02:54:34;4.30;;;2.05;;
61709;SDS011;47633;51.494;5.386;2023-03-16T02:56:59;4.38;;;2.13;;
61709;SDS011;47633;51.494;5.386;2023-03-16T02:59:25;3.67;;;2.10;;
61709;SDS011;47633;51.494;5.386;2023-03-16T03:01:50;4.28;;;2.20;;
61709;SDS011;47633;51.494;5.386;2023-03-16T03:04:16;3.83;;;2.20;;
61709;SDS011;47633;51.494;5.386;2023-03-16T03:06:41;4.32;;;2.30;;
61709;SDS011;47633;51.494;5.386;2023-03-16T03:09:07;5.15;;;2.38;;
61709;SDS011;47633;51.494;5.386;2023-03-16T03:11:35;3.70;;;1.90;;
61709;SDS011;47633;51.494;5.386;2023-03-16T03:14:01;4.72;;;2.17;;
61709;SDS011;47633;51.494;5.386;2023-03-16T03:16:28;4.20;;;2.10;;
61709;SDS011;47633;51.494;5.386;2023-03-16T03:18:53;4.05;;;2.20;;
61709;SDS011;47633;51.494;5.386;2023-03-16T03:21:19;5.13;;;2.15;;
61709;SDS011;47633;51.494;5.386;2023-03-16T03:23:45;4.47;;;2.20;;
61709;SDS011;47633;51.494;5.386;2023-03-16T03:26:11;4.35;;;1.90;;
61709;SDS011;47633;51.494;5.386;2023-03-16T03:28:38;4.53;;;2.00;;
61709;SDS011;47633;51.494;5.386;2023-03-16T03:31:04;4.38;;;2.20;;
61709;SDS011;47633;51.494;5.386;2023-03-16T03:33:29;4.03;;;2.10;;
61709;SDS011;47633;51.494;5.386;2023-03-16T03:35:58;4.88;;;2.35;;
61709;SDS011;47633;51.494;5.386;2023-03-16T03:38:24;4.53;;;1.92;;
61709;SDS011;47633;51.494;5.386;2023-03-16T03:40:50;6.13;;;2.20;;
61709;SDS011;47633;51.494;5.386;2023-03-16T03:43:17;3.47;;;1.90;;
61709;SDS011;47633;51.494;5.386;2023-03-16T03:45:43;3.72;;;1.83;;
61709;SDS011;47633;51.494;5.386;2023-03-16T03:48:08;4.93;;;2.10;;
61709;SDS011;47633;51.494;5.386;2023-03-16T03:50:33;3.40;;;1.83;;
61709;SDS011;47633;51.494;5.386;2023-03-16T03:52:59;3.92;;;1.90;;
61709;SDS011;47633;51.494;5.386;2023-03-16T03:55:24;3.63;;;1.73;;
61709;SDS011;47633;51.494;5.386;2023-03-16T03:57:49;4.97;;;2.10;;
61709;SDS011;47633;51.494;5.386;2023-03-16T04:00:15;4.00;;;1.90;;
61709;SDS011;47633;51.494;5.386;2023-03-16T04:02:44;3.92;;;1.90;;
61709;SDS011;47633;51.494;5.386;2023-03-16T04:05:09;3.30;;;1.85;;
61709;SDS011;47633;51.494;5.386;2023-03-16T04:07:34;3.97;;;1.83;;
61709;SDS011;47633;51.494;5.386;2023-03-16T04:10:00;3.55;;;1.70;;
61709;SDS011;47633;51.494;5.386;2023-03-16T04:12:25;3.95;;;1.75;;
61709;SDS011;47633;51.494;5.386;2023-03-16T04:14:50;4.43;;;1.80;;
61709;SDS011;47633;51.494;5.386;2023-03-16T04:17:16;3.25;;;1.67;;
61709;SDS011;47633;51.494;5.386;2023-03-16T04:19:41;3.53;;;1.80;;
61709;SDS011;47633;51.494;5.386;2023-03-16T04:22:07;4.05;;;2.00;;
61709;SDS011;47633;51.494;5.386;2023-03-16T04:24:32;4.10;;;1.83;;
61709;SDS011;47633;51.494;5.386;2023-03-16T04:26:58;4.15;;;2.03;;
61709;SDS011;47633;51.494;5.386;2023-03-16T04:29:26;4.90;;;2.35;;
61709;SDS011;47633;51.494;5.386;2023-03-16T04:31:52;3.67;;;1.70;;
61709;SDS011;47633;51.494;5.386;2023-03-16T04:34:18;4.05;;;1.90;;
61709;SDS011;47633;51.494;5.386;2023-03-16T04:36:48;3.25;;;1.70;;
61709;SDS011;47633;51.494;5.386;2023-03-16T04:39:14;4.07;;;1.80;;
61709;SDS011;47633;51.494;5.386;2023-03-16T04:41:39;3.57;;;1.90;;
61709;SDS011;47633;51.494;5.386;2023-03-16T04:44:04;3.13;;;1.70;;
61709;SDS011;47633;51.494;5.386;2023-03-16T04:46:30;3.50;;;1.70;;
61709;SDS011;47633;51.494;5.386;2023-03-16T04:48:55;3.00;;;1.70;;
61709;SDS011;47633;51.494;5.386;2023-03-16T04:51:22;3.92;;;1.80;;
61709;SDS011;47633;51.494;5.386;2023-03-16T04:53:47;3.95;;;1.60;;
61709;SDS011;47633;51.494;5.386;2023-03-16T04:56:13;3.53;;;1.83;;
61709;SDS011;47633;51.494;5.386;2023-03-16T04:58:46;3.40;;;1.50;;
61709;SDS011;47633;51.494;5.386;2023-03-16T05:01:14;3.28;;;1.60;;
61709;SDS011;47633;51.494;5.386;2023-03-16T05:03:41;3.90;;;1.80;;
61709;SDS011;47633;51.494;5.386;2023-03-16T05:06:07;3.83;;;1.70;;
61709;SDS011;47633;51.494;5.386;2023-03-16T05:08:34;3.92;;;1.70;;
61709;SDS011;47633;51.494;5.386;2023-03-16T05:11:00;3.65;;;1.60;;
61709;SDS011;47633;51.494;5.386;2023-03-16T05:13:25;3.35;;;1.40;;
61709;SDS011;47633;51.494;5.386;2023-03-16T05:15:50;3.47;;;1.65;;
61709;SDS011;47633;51.494;5.386;2023-03-16T05:18:19;3.75;;;1.52;;
61709;SDS011;47633;51.494;5.386;2023-03-16T05:20:47;3.60;;;1.83;;
61709;SDS011;47633;51.494;5.386;2023-03-16T05:23:13;4.25;;;1.63;;
61709;SDS011;47633;51.494;5.386;2023-03-16T05:25:40;3.95;;;1.35;;
61709;SDS011;47633;51.494;5.386;2023-03-16T05:28:06;2.90;;;1.35;;
61709;SDS011;47633;51.494;5.386;2023-03-16T05:30:31;2.88;;;1.30;;
61709;SDS011;47633;51.494;5.386;2023-03-16T05:32:56;3.25;;;1.40;;
61709;SDS011;47633;51.494;5.386;2023-03-16T05:35:22;4.20;;;1.65;;
61709;SDS011;47633;51.494;5.386;2023-03-16T05:37:48;3.10;;;1.40;;
61709;SDS011;47633;51.494;5.386;2023-03-16T05:40:14;3.08;;;1.38;;
61709;SDS011;47633;51.494;5.386;2023-03-16T05:42:46;3.33;;;1.50;;
61709;SDS011;47633;51.494;5.386;2023-03-16T05:45:13;3.38;;;1.30;;
61709;SDS011;47633;51.494;5.386;2023-03-16T05:47:40;3.58;;;1.40;;
61709;SDS011;47633;51.494;5.386;2023-03-16T05:50:06;2.90;;;1.25;;
61709;SDS011;47633;51.494;5.386;2023-03-16T05:52:36;2.58;;;1.10;;
61709;SDS011;47633;51.494;5.386;2023-03-16T05:55:02;3.30;;;1.27;;
61709;SDS011;47633;51.494;5.386;2023-03-16T05:57:29;2.90;;;1.40;;
61709;SDS011;47633;51.494;5.386;2023-03-16T05:59:55;2.92;;;1.35;;
61709;SDS011;47633;51.494;5.386;2023-03-16T06:02:20;4.20;;;1.38;;
61709;SDS011;47633;51.494;5.386;2023-03-16T06:04:46;3.30;;;1.23;;
61709;SDS011;47633;51.494;5.386;2023-03-16T06:07:11;2.87;;;1.50;;
61709;SDS011;47633;51.494;5.386;2023-03-16T06:09:36;2.08;;;1.25;;
61709;SDS011;47633;51.494;5.386;2023-03-16T06:12:02;2.92;;;1.30;;
61709;SDS011;47633;51.494;5.386;2023-03-16T06:14:28;2.60;;;1.10;;
61709;SDS011;47633;51.494;5.386;2023-03-16T06:16:54;3.22;;;1.20;;
61709;SDS011;47633;51.494;5.386;2023-03-16T06:19:19;3.00;;;1.08;;
61709;SDS011;47633;51.494;5.386;2023-03-16T06:21:45;3.88;;;1.40;;
61709;SDS011;47633;51.494;5.386;2023-03-16T06:24:11;3.30;;;1.25;;
61709;SDS011;47633;51.494;5.386;2023-03-16T06:26:36;2.90;;;1.20;;
61709;SDS011;47633;51.494;5.386;2023-03-16T06:32:23;2.47;;;1.13;;
61709;SDS011;47633;51.494;5.386;2023-03-16T06:34:48;2.42;;;1.10;;
61709;SDS011;47633;51.494;5.386;2023-03-16T06:37:14;3.53;;;1.20;;
61709;SDS011;47633;51.494;5.386;2023-03-16T06:39:39;2.65;;;1.10;;
61709;SDS011;47633;51.494;5.386;2023-03-16T06:42:04;3.05;;;1.27;;
61709;SDS011;47633;51.494;5.386;2023-03-16T06:44:30;2.97;;;1.30;;
61709;SDS011;47633;51.494;5.386;2023-03-16T06:50:17;2.88;;;1.30;;
61709;SDS011;47633;51.494;5.386;2023-03-16T06:52:42;2.75;;;1.10;;
61709;SDS011;47633;51.494;5.386;2023-03-16T06:55:08;2.83;;;1.10;;
61709;SDS011;47633;51.494;5.386;2023-03-16T06:57:34;3.33;;;1.20;;
61709;SDS011;47633;51.494;5.386;2023-03-16T06:59:59;6.38;;;1.30;;
61709;SDS011;47633;51.494;5.386;2023-03-16T07:02:25;5.05;;;1.50;;
61709;SDS011;47633;51.494;5.386;2023-03-16T07:04:50;4.40;;;1.35;;
61709;SDS011;47633;51.494;5.386;2023-03-16T07:07:16;3.42;;;1.30;;
61709;SDS011;47633;51.494;5.386;2023-03-16T07:09:43;4.95;;;1.50;;
61709;SDS011;47633;51.494;5.386;2023-03-16T07:12:08;4.38;;;1.30;;
61709;SDS011;47633;51.494;5.386;2023-03-16T07:14:34;4.00;;;1.50;;
61709;SDS011;47633;51.494;5.386;2023-03-16T07:16:59;2.83;;;1.15;;
61709;SDS011;47633;51.494;5.386;2023-03-16T07:19:25;2.53;;;1.15;;
61709;SDS011;47633;51.494;5.386;2023-03-16T07:21:51;4.25;;;1.30;;
61709;SDS011;47633;51.494;5.386;2023-03-16T07:24:16;5.22;;;1.33;;
61709;SDS011;47633;51.494;5.386;2023-03-16T07:26:41;4.30;;;1.20;;
61709;SDS011;47633;51.494;5.386;2023-03-16T07:29:07;3.35;;;1.55;;
61709;SDS011;47633;51.494;5.386;2023-03-16T07:31:33;3.85;;;1.10;;
61709;SDS011;47633;51.494;5.386;2023-03-16T07:33:59;3.20;;;1.20;;
61709;SDS011;47633;51.494;5.386;2023-03-16T07:36:26;4.97;;;1.20;;
61709;SDS011;47633;51.494;5.386;2023-03-16T07:38:52;3.95;;;1.00;;
61709;SDS011;47633;51.494;5.386;2023-03-16T07:41:17;6.78;;;1.40;;
61709;SDS011;47633;51.494;5.386;2023-03-16T07:43:43;4.20;;;1.10;;
61709;SDS011;47633;51.494;5.386;2023-03-16T07:46:08;4.05;;;1.20;;
61709;SDS011;47633;51.494;5.386;2023-03-16T07:48:37;4.90;;;1.58;;
61709;SDS011;47633;51.494;5.386;2023-03-16T07:51:03;4.45;;;1.20;;
61709;SDS011;47633;51.494;5.386;2023-03-16T07:53:28;3.80;;;1.40;;
61709;SDS011;47633;51.494;5.386;2023-03-16T07:55:54;3.67;;;1.20;;
61709;SDS011;47633;51.494;5.386;2023-03-16T07:58:19;3.58;;;1.20;;
61709;SDS011;47633;51.494;5.386;2023-03-16T08:00:45;3.03;;;1.10;;
61709;SDS011;47633;51.494;5.386;2023-03-16T08:03:10;4.73;;;1.40;;
61709;SDS011;47633;51.494;5.386;2023-03-16T08:05:36;5.25;;;1.30;;
61709;SDS011;47633;51.494;5.386;2023-03-16T08:08:01;6.10;;;1.50;;
61709;SDS011;47633;51.494;5.386;2023-03-16T08:10:26;3.55;;;1.33;;
61709;SDS011;47633;51.494;5.386;2023-03-16T08:12:52;3.55;;;1.25;;
61709;SDS011;47633;51.494;5.386;2023-03-16T08:15:17;5.57;;;1.50;;
61709;SDS011;47633;51.494;5.386;2023-03-16T08:17:43;2.40;;;1.00;;
61709;SDS011;47633;51.494;5.386;2023-03-16T08:20:09;3.83;;;1.30;;
61709;SDS011;47633;51.494;5.386;2023-03-16T08:22:38;5.43;;;1.30;;
61709;SDS011;47633;51.494;5.386;2023-03-16T08:25:04;6.32;;;1.33;;
61709;SDS011;47633;51.494;5.386;2023-03-16T08:27:31;5.78;;;1.15;;
61709;SDS011;47633;51.494;5.386;2023-03-16T08:29:57;5.18;;;1.55;;
61709;SDS011;47633;51.494;5.386;2023-03-16T08:32:28;4.38;;;1.20;;
61709;SDS011;47633;51.494;5.386;2023-03-16T08:34:54;4.00;;;1.30;;
61709;SDS011;47633;51.494;5.386;2023-03-16T08:37:19;3.13;;;1.23;;
61709;SDS011;47633;51.494;5.386;2023-03-16T08:39:46;3.22;;;1.40;;
61709;SDS011;47633;51.494;5.386;2023-03-16T08:42:11;2.85;;;1.13;;
61709;SDS011;47633;51.494;5.386;2023-03-16T08:44:39;2.75;;;1.00;;
61709;SDS011;47633;51.494;5.386;2023-03-16T08:47:05;4.50;;;1.33;;
61709;SDS011;47633;51.494;5.386;2023-03-16T08:49:30;6.13;;;1.20;;
61709;SDS011;47633;51.494;5.386;2023-03-16T08:51:56;3.92;;;1.20;;
61709;SDS011;47633;51.494;5.386;2023-03-16T08:54:22;3.58;;;1.13;;
61709;SDS011;47633;51.494;5.386;2023-03-16T08:56:47;4.03;;;1.02;;
61709;SDS011;47633;51.494;5.386;2023-03-16T08:59:13;3.50;;;1.02;;
61709;SDS011;47633;51.494;5.386;2023-03-16T09:01:38;4.22;;;1.30;;
61709;SDS011;47633;51.494;5.386;2023-03-16T09:04:04;2.38;;;1.15;;
61709;SDS011;47633;51.494;5.386;2023-03-16T09:06:29;3.53;;;1.13;;
61709;SDS011;47633;51.494;5.386;2023-03-16T09:08:55;4.45;;;1.10;;
61709;SDS011;47633;51.494;5.386;2023-03-16T09:11:21;3.85;;;1.30;;
61709;SDS011;47633;51.494;5.386;2023-03-16T09:13:47;3.50;;;1.13;;
61709;SDS011;47633;51.494;5.386;2023-03-16T09:16:13;5.53;;;1.27;;
61709;SDS011;47633;51.494;5.386;2023-03-16T09:18:39;2.70;;;1.13;;
61709;SDS011;47633;51.494;5.386;2023-03-16T09:21:07;3.53;;;1.20;;
61709;SDS011;47633;51.494;5.386;2023-03-16T09:23:34;3.40;;;1.95;;
61709;SDS011;47633;51.494;5.386;2023-03-16T09:26:04;4.60;;;1.30;;
61709;SDS011;47633;51.494;5.386;2023-03-16T09:28:31;3.97;;;0.98;;
61709;SDS011;47633;51.494;5.386;2023-03-16T09:30:58;3.92;;;1.25;;
61709;SDS011;47633;51.494;5.386;2023-03-16T09:33:25;3.65;;;1.30;;
61709;SDS011;47633;51.494;5.386;2023-03-16T09:35:52;3.42;;;1.02;;
61709;SDS011;47633;51.494;5.386;2023-03-16T09:38:19;4.50;;;1.30;;
61709;SDS011;47633;51.494;5.386;2023-03-16T09:40:45;6.75;;;2.20;;
61709;SDS011;47633;51.494;5.386;2023-03-16T09:43:59;6.18;;;1.30;;
61709;SDS011;47633;51.494;5.386;2023-03-16T09:46:17;10.75;;;1.65;;
61709;SDS011;47633;51.494;5.386;2023-03-16T09:48:43;3.67;;;1.10;;
61709;SDS011;47633;51.494;5.386;2023-03-16T09:51:14;5.70;;;1.25;;
61709;SDS011;47633;51.494;5.386;2023-03-16T09:53:45;4.40;;;1.27;;
61709;SDS011;47633;51.494;5.386;2023-03-16T09:56:13;4.50;;;1.30;;
61709;SDS011;47633;51.494;5.386;2023-03-16T09:58:44;3.78;;;1.02;;
61709;SDS011;47633;51.494;5.386;2023-03-16T10:01:25;3.85;;;1.20;;
61709;SDS011;47633;51.494;5.386;2023-03-16T10:06:35;2.30;;;0.98;;
61709;SDS011;47633;51.494;5.386;2023-03-16T10:09:22;5.35;;;1.25;;
61709;SDS011;47633;51.494;5.386;2023-03-16T10:11:55;3.37;;;1.00;;
61709;SDS011;47633;51.494;5.386;2023-03-16T10:17:29;3.47;;;1.10;;
61709;SDS011;47633;51.494;5.386;2023-03-16T10:20:03;3.97;;;1.15;;
61709;SDS011;47633;51.494;5.386;2023-03-16T10:22:36;5.28;;;1.30;;
61709;SDS011;47633;51.494;5.386;2023-03-16T10:27:49;3.35;;;1.10;;
61709;SDS011;47633;51.494;5.386;2023-03-16T10:30:20;2.97;;;1.00;;
61709;SDS011;47633;51.494;5.386;2023-03-16T10:32:46;4.80;;;1.10;;
61709;SDS011;47633;51.494;5.386;2023-03-16T10:35:25;5.13;;;1.10;;
61709;SDS011;47633;51.494;5.386;2023-03-16T10:37:58;4.50;;;1.00;;
61709;SDS011;47633;51.494;5.386;2023-03-16T10:40:24;4.93;;;1.15;;
61709;SDS011;47633;51.494;5.386;2023-03-16T10:42:50;7.72;;;1.30;;
61709;SDS011;47633;51.494;5.386;2023-03-16T10:45:19;4.65;;;1.45;;
61709;SDS011;47633;51.494;5.386;2023-03-16T10:47:53;4.18;;;1.20;;
61709;SDS011;47633;51.494;5.386;2023-03-16T10:50:29;2.25;;;0.90;;
61709;SDS011;47633;51.494;5.386;2023-03-16T10:52:56;4.72;;;1.50;;
61709;SDS011;47633;51.494;5.386;2023-03-16T10:55:26;3.08;;;1.00;;
61709;SDS011;47633;51.494;5.386;2023-03-16T10:57:54;1.85;;;0.95;;
61709;SDS011;47633;51.494;5.386;2023-03-16T11:00:27;4.57;;;1.30;;
61709;SDS011;47633;51.494;5.386;2023-03-16T11:02:55;4.68;;;1.10;;
61709;SDS011;47633;51.494;5.386;2023-03-16T11:05:28;5.97;;;1.40;;
61709;SDS011;47633;51.494;5.386;2023-03-16T11:07:59;6.13;;;1.20;;
61709;SDS011;47633;51.494;5.386;2023-03-16T11:10:27;6.10;;;1.35;;
61709;SDS011;47633;51.494;5.386;2023-03-16T11:12:59;4.00;;;1.05;;
61709;SDS011;47633;51.494;5.386;2023-03-16T11:15:25;4.75;;;1.27;;
61709;SDS011;47633;51.494;5.386;2023-03-16T11:17:57;3.92;;;1.30;;
61709;SDS011;47633;51.494;5.386;2023-03-16T11:20:24;5.30;;;1.30;;
61709;SDS011;47633;51.494;5.386;2023-03-16T11:22:52;5.80;;;1.30;;
61709;SDS011;47633;51.494;5.386;2023-03-16T11:25:28;5.03;;;1.50;;
61709;SDS011;47633;51.494;5.386;2023-03-16T11:31:11;14.88;;;10.10;;
61709;SDS011;47633;51.494;5.386;2023-03-16T11:33:43;21.85;;;18.00;;
61709;SDS011;47633;51.494;5.386;2023-03-16T11:41:34;27.98;;;25.15;;
61709;SDS011;47633;51.494;5.386;2023-03-16T11:44:04;30.55;;;27.38;;
61709;SDS011;47633;51.494;5.386;2023-03-16T11:46:40;39.60;;;30.60;;
61709;SDS011;47633;51.494;5.386;2023-03-16T11:54:43;32.25;;;28.75;;
61709;SDS011;47633;51.494;5.386;2023-03-16T12:00:19;28.15;;;24.92;;
61709;SDS011;47633;51.494;5.386;2023-03-16T12:03:08;25.25;;;22.65;;
61709;SDS011;47633;51.494;5.386;2023-03-16T12:05:54;23.65;;;21.25;;
61709;SDS011;47633;51.494;5.386;2023-03-16T12:11:28;22.65;;;20.35;;
61709;SDS011;47633;51.494;5.386;2023-03-16T12:17:06;21.55;;;18.63;;
61709;SDS011;47633;51.494;5.386;2023-03-16T12:19:45;22.25;;;17.70;;
61709;SDS011;47633;51.494;5.386;2023-03-16T12:22:19;22.25;;;16.73;;
61709;SDS011;47633;51.494;5.386;2023-03-16T12:24:46;23.08;;;16.63;;
61709;SDS011;47633;51.494;5.386;2023-03-16T12:27:13;19.05;;;16.38;;
61709;SDS011;47633;51.494;5.386;2023-03-16T12:29:52;19.83;;;16.13;;
61709;SDS011;47633;51.494;5.386;2023-03-16T12:32:45;16.00;;;14.25;;
61709;SDS011;47633;51.494;5.386;2023-03-16T12:35:38;18.25;;;14.00;;
61709;SDS011;47633;51.494;5.386;2023-03-16T12:38:30;17.95;;;14.18;;
61709;SDS011;47633;51.494;5.386;2023-03-16T12:47:02;15.07;;;12.10;;
61709;SDS011;47633;51.494;5.386;2023-03-16T12:49:04;18.83;;;12.13;;
61709;SDS011;47633;51.494;5.386;2023-03-16T12:51:36;15.98;;;12.02;;
61709;SDS011;47633;51.494;5.386;2023-03-16T12:54:03;14.35;;;11.15;;
61709;SDS011;47633;51.494;5.386;2023-03-16T12:56:34;16.73;;;11.45;;
61709;SDS011;47633;51.494;5.386;2023-03-16T12:59:07;12.27;;;10.15;;
61709;SDS011;47633;51.494;5.386;2023-03-16T13:01:41;14.57;;;10.57;;
61709;SDS011;47633;51.494;5.386;2023-03-16T13:04:14;11.52;;;9.98;;
61709;SDS011;47633;51.494;5.386;2023-03-16T13:06:44;13.50;;;9.05;;
61709;SDS011;47633;51.494;5.386;2023-03-16T13:09:16;12.80;;;8.98;;
61709;SDS011;47633;51.494;5.386;2023-03-16T13:11:45;10.75;;;8.55;;
61709;SDS011;47633;51.494;5.386;2023-03-16T13:14:32;11.45;;;8.50;;
61709;SDS011;47633;51.494;5.386;2023-03-16T13:19:41;12.60;;;8.07;;
61709;SDS011;47633;51.494;5.386;2023-03-16T13:25:33;10.30;;;7.47;;
61709;SDS011;47633;51.494;5.386;2023-03-16T13:27:38;9.45;;;6.63;;
61709;SDS011;47633;51.494;5.386;2023-03-16T13:30:14;8.68;;;5.40;;
61709;SDS011;47633;51.494;5.386;2023-03-16T13:32:43;8.93;;;4.30;;
61709;SDS011;47633;51.494;5.386;2023-03-16T13:35:12;6.55;;;4.50;;
61709;SDS011;47633;51.494;5.386;2023-03-16T13:37:39;8.57;;;4.53;;
61709;SDS011;47633;51.494;5.386;2023-03-16T13:40:18;7.15;;;4.82;;
61709;SDS011;47633;51.494;5.386;2023-03-16T13:42:49;6.43;;;4.60;;
61709;SDS011;47633;51.494;5.386;2023-03-16T13:45:21;9.02;;;4.40;;
61709;SDS011;47633;51.494;5.386;2023-03-16T13:47:52;7.65;;;4.22;;
61709;SDS011;47633;51.494;5.386;2023-03-16T13:50:17;8.65;;;3.78;;
61709;SDS011;47633;51.494;5.386;2023-03-16T13:52:49;6.65;;;4.28;;
61709;SDS011;47633;51.494;5.386;2023-03-16T13:55:20;7.25;;;4.35;;
61709;SDS011;47633;51.494;5.386;2023-03-16T13:57:50;8.88;;;3.70;;
61709;SDS011;47633;51.494;5.386;2023-03-16T14:02:50;7.30;;;3.45;;
61709;SDS011;47633;51.494;5.386;2023-03-16T14:05:18;7.70;;;4.30;;
61709;SDS011;47633;51.494;5.386;2023-03-16T14:07:49;8.45;;;3.92;;
61709;SDS011;47633;51.494;5.386;2023-03-16T14:10:15;8.10;;;4.07;;
61709;SDS011;47633;51.494;5.386;2023-03-16T14:12:56;10.02;;;3.80;;
61709;SDS011;47633;51.494;5.386;2023-03-16T14:15:30;6.38;;;3.80;;
61709;SDS011;47633;51.494;5.386;2023-03-16T14:18:01;6.18;;;3.40;;
61709;SDS011;47633;51.494;5.386;2023-03-16T14:20:36;5.55;;;3.42;;
61709;SDS011;47633;51.494;5.386;2023-03-16T14:23:03;4.95;;;2.97;;
61709;SDS011;47633;51.494;5.386;2023-03-16T14:25:29;6.68;;;2.97;;
61709;SDS011;47633;51.494;5.386;2023-03-16T14:27:58;5.50;;;3.03;;
61709;SDS011;47633;51.494;5.386;2023-03-16T14:30:26;5.45;;;2.95;;
61709;SDS011;47633;51.494;5.386;2023-03-16T14:33:01;6.53;;;3.15;;
61709;SDS011;47633;51.494;5.386;2023-03-16T14:35:32;7.50;;;2.92;;
61709;SDS011;47633;51.494;5.386;2023-03-16T14:38:21;7.35;;;2.95;;
61709;SDS011;47633;51.494;5.386;2023-03-16T14:40:55;8.82;;;3.05;;
61709;SDS011;47633;51.494;5.386;2023-03-16T14:43:29;4.88;;;2.38;;
61709;SDS011;47633;51.494;5.386;2023-03-16T14:45:57;4.60;;;2.78;;
61709;SDS011;47633;51.494;5.386;2023-03-16T14:48:23;7.82;;;2.63;;
61709;SDS011;47633;51.494;5.386;2023-03-16T14:50:56;5.00;;;2.63;;
61709;SDS011;47633;51.494;5.386;2023-03-16T14:53:23;7.72;;;2.65;;
61709;SDS011;47633;51.494;5.386;2023-03-16T14:55:52;5.63;;;2.80;;
61709;SDS011;47633;51.494;5.386;2023-03-16T14:58:20;9.82;;;3.08;;
61709;SDS011;47633;51.494;5.386;2023-03-16T15:00:46;5.68;;;2.90;;
61709;SDS011;47633;51.494;5.386;2023-03-16T15:03:16;6.13;;;2.53;;
61709;SDS011;47633;51.494;5.386;2023-03-16T15:05:43;4.82;;;2.80;;
61709;SDS011;47633;51.494;5.386;2023-03-16T15:08:13;6.43;;;2.60;;
61709;SDS011;47633;51.494;5.386;2023-03-16T15:10:39;5.32;;;2.50;;
61709;SDS011;47633;51.494;5.386;2023-03-16T15:13:12;6.35;;;2.22;;
61709;SDS011;47633;51.494;5.386;2023-03-16T15:16:16;7.30;;;2.20;;
61709;SDS011;47633;51.494;5.386;2023-03-16T15:18:43;5.43;;;2.17;;
61709;SDS011;47633;51.494;5.386;2023-03-16T15:21:13;5.80;;;2.03;;
61709;SDS011;47633;51.494;5.386;2023-03-16T15:23:41;5.38;;;1.95;;
61709;SDS011;47633;51.494;5.386;2023-03-16T15:26:12;5.35;;;2.17;;
61709;SDS011;47633;51.494;5.386;2023-03-16T15:28:39;6.00;;;2.20;;
61709;SDS011;47633;51.494;5.386;2023-03-16T15:31:05;7.93;;;2.35;;
61709;SDS011;47633;51.494;5.386;2023-03-16T15:33:31;6.40;;;2.35;;
61709;SDS011;47633;51.494;5.386;2023-03-16T15:35:58;5.80;;;2.30;;
61709;SDS011;47633;51.494;5.386;2023-03-16T15:38:30;6.05;;;2.08;;
61709;SDS011;47633;51.494;5.386;2023-03-16T15:40:57;3.70;;;1.70;;
61709;SDS011;47633;51.494;5.386;2023-03-16T15:43:24;4.22;;;1.85;;
61709;SDS011;47633;51.494;5.386;2023-03-16T15:45:53;6.82;;;1.83;;
61709;SDS011;47633;51.494;5.386;2023-03-16T15:48:20;4.50;;;2.00;;
61709;SDS011;47633;51.494;5.386;2023-03-16T15:50:52;6.60;;;1.85;;
61709;SDS011;47633;51.494;5.386;2023-03-16T15:53:25;3.33;;;1.58;;
61709;SDS011;47633;51.494;5.386;2023-03-16T15:55:53;3.78;;;1.52;;
61709;SDS011;47633;51.494;5.386;2023-03-16T15:58:23;6.38;;;1.70;;
61709;SDS011;47633;51.494;5.386;2023-03-16T16:00:51;5.38;;;2.08;;